createdAt,value
2023-01-30T00:00:09.803Z,99359.70
2023-01-30T00:02:58.625Z,99359.96
2023-01-30T00:05:27.868Z,99364.23
2023-01-30T00:07:56.466Z,99358.30
2023-01-30T00:10:26.154Z,99362.31
2023-01-30T00:12:54.937Z,99361.21
2023-01-30T00:15:23.659Z,99358.16
2023-01-30T00:17:52.789Z,99358.02
2023-01-30T00:20:21.637Z,99356.98
2023-01-30T00:23:00.567Z,99354.44
2023-01-30T00:25:31.971Z,99352.38
2023-01-30T00:28:02.087Z,99354.56
2023-01-30T00:30:31.386Z,99350.39
2023-01-30T00:33:00.492Z,99349.66
2023-01-30T00:35:29.307Z,99349.13
2023-01-30T00:37:59.114Z,99346.86
2023-01-30T00:40:29.659Z,99350.22
2023-01-30T00:43:17.178Z,99352.86
2023-01-30T00:46:06.006Z,99348.04
2023-01-30T00:48:34.753Z,99352.57
2023-01-30T00:51:04.251Z,99346.64
2023-01-30T00:53:33.142Z,99344.95
2023-01-30T00:56:02.485Z,99343.41
2023-01-30T00:58:31.970Z,99341.09
2023-01-30T01:01:00.919Z,99339.17
2023-01-30T01:03:29.896Z,99332.75
2023-01-30T01:05:59.044Z,99332.66
2023-01-30T01:08:27.916Z,99331.75
2023-01-30T01:10:57.036Z,99330.38
2023-01-30T01:13:25.965Z,99327.10
2023-01-30T01:15:54.738Z,99328.67
2023-01-30T01:18:23.268Z,99329.67
2023-01-30T01:20:52.017Z,99327.92
2023-01-30T01:23:21.710Z,99323.83
2023-01-30T01:25:50.631Z,99321.39
2023-01-30T01:28:22.330Z,99321.73
2023-01-30T01:30:51.621Z,99319.00
2023-01-30T01:33:20.481Z,99315.48
2023-01-30T01:35:49.720Z,99314.70
2023-01-30T01:38:18.490Z,99312.41
2023-01-30T01:41:02.545Z,99313.96
2023-01-30T01:43:35.301Z,99313.23
2023-01-30T01:46:13.969Z,99311.91
2023-01-30T01:48:48.190Z,99310.05
2023-01-30T01:51:23.314Z,99310.23
2023-01-30T01:53:59.940Z,99311.05
2023-01-30T01:56:30.821Z,99308.17
2023-01-30T01:59:05.113Z,99307.80
2023-01-30T02:01:35.107Z,99306.57
2023-01-30T02:04:06.687Z,99305.39
2023-01-30T02:06:37.854Z,99307.73
2023-01-30T02:09:11.095Z,99307.46
2023-01-30T02:11:56.702Z,99307.88
2023-01-30T02:14:25.975Z,99305.66
2023-01-30T02:16:55.085Z,99302.59
2023-01-30T02:19:38.017Z,99299.72
2023-01-30T02:22:23.560Z,99297.79
2023-01-30T02:25:20.444Z,99296.34
2023-01-30T02:27:58.099Z,99294.08
2023-01-30T02:30:54.616Z,99292.80
2023-01-30T02:33:55.421Z,99292.00
2023-01-30T02:37:04.842Z,99290.17
2023-01-30T02:39:46.504Z,99288.75
2023-01-30T02:42:48.888Z,99285.14
2023-01-30T02:45:36.416Z,99290.23
2023-01-30T02:48:08.014Z,99293.18
2023-01-30T02:51:03.817Z,99297.02
2023-01-30T02:53:37.282Z,99291.39
2023-01-30T02:56:07.579Z,99289.65
2023-01-30T02:58:43.194Z,99290.70
2023-01-30T03:01:43.024Z,99291.95
2023-01-30T03:04:39.623Z,99292.47
2023-01-30T03:07:19.325Z,99290.08
2023-01-30T03:10:18.710Z,99285.35
2023-01-30T03:13:10.939Z,99282.92
2023-01-30T03:15:51.490Z,99283.86
2023-01-30T03:18:22.118Z,99278.70
2023-01-30T03:20:51.998Z,99276.83
2023-01-30T03:23:21.195Z,99276.95
2023-01-30T03:25:50.261Z,99280.40
2023-01-30T03:28:22.106Z,99282.17
2023-01-30T03:30:50.960Z,99280.60
2023-01-30T03:33:20.339Z,99273.61
2023-01-30T03:35:51.009Z,99275.75
2023-01-30T03:38:20.465Z,99273.48
2023-01-30T03:40:49.347Z,99268.92
2023-01-30T03:43:18.509Z,99274.33
2023-01-30T03:45:47.103Z,99272.23
2023-01-30T03:48:16.934Z,99269.73
2023-01-30T03:50:45.869Z,99263.99
2023-01-30T03:53:14.762Z,99258.11
2023-01-30T03:55:45.926Z,99261.60
2023-01-30T03:58:14.774Z,99257.29
2023-01-30T04:00:43.826Z,99260.59
2023-01-30T04:03:12.855Z,99259.36
2023-01-30T04:05:43.492Z,99255.52
2023-01-30T04:08:12.361Z,99258.56
2023-01-30T04:10:40.983Z,99257.64
2023-01-30T04:13:09.739Z,99250.59
2023-01-30T04:15:38.789Z,99248.17
2023-01-30T04:18:07.513Z,99247.53
2023-01-30T04:20:37.131Z,99245.78
2023-01-30T04:23:05.784Z,99249.42
2023-01-30T04:25:34.629Z,99249.17
2023-01-30T04:28:03.343Z,99247.48
2023-01-30T04:30:32.012Z,99239.91
2023-01-30T04:33:00.728Z,99239.95
2023-01-30T04:35:29.252Z,99234.77
2023-01-30T04:37:58.210Z,99233.38
2023-01-30T04:40:27.141Z,99228.70
2023-01-30T04:42:55.667Z,99228.73
2023-01-30T04:45:24.392Z,99226.29
2023-01-30T04:47:52.906Z,99229.27
2023-01-30T04:50:21.572Z,99225.89
2023-01-30T04:52:50.156Z,99224.08
2023-01-30T04:55:19.522Z,99220.43
2023-01-30T04:57:48.411Z,99218.95
2023-01-30T05:00:17.355Z,99213.45
2023-01-30T05:02:46.054Z,99215.08
2023-01-30T05:05:15.254Z,99217.14
2023-01-30T05:07:44.185Z,99219.27
2023-01-30T05:10:13.861Z,99213.30
2023-01-30T05:12:42.635Z,99211.07
2023-01-30T05:15:13.038Z,99212.85
2023-01-30T05:17:44.435Z,99209.73
2023-01-30T05:20:15.027Z,99210.49
2023-01-30T05:22:44.256Z,99206.98
2023-01-30T05:25:13.341Z,99210.80
2023-01-30T05:27:42.278Z,99215.08
2023-01-30T05:30:11.633Z,99216.76
2023-01-30T05:32:40.502Z,99213.66
2023-01-30T05:35:09.541Z,99219.99
2023-01-30T05:37:38.801Z,99227.26
2023-01-30T05:40:09.582Z,99231.33
2023-01-30T05:42:38.547Z,99241.50
2023-01-30T05:45:07.837Z,99249.58
2023-01-30T05:47:36.560Z,99249.97
2023-01-30T05:50:05.727Z,99251.16
2023-01-30T05:52:34.566Z,99250.73
2023-01-30T05:55:03.753Z,99251.87
2023-01-30T05:57:32.440Z,99248.92
2023-01-30T06:00:01.509Z,99248.31
2023-01-30T06:02:31.903Z,99252.07
2023-01-30T06:05:01.145Z,99252.59
2023-01-30T06:07:30.095Z,99258.85
2023-01-30T06:09:59.310Z,99260.86
2023-01-30T06:12:28.499Z,99262.41
2023-01-30T06:14:57.636Z,99261.45
2023-01-30T06:17:29.078Z,99264.77
2023-01-30T06:19:59.016Z,99264.34
2023-01-30T06:22:28.161Z,99265.42
2023-01-30T06:24:57.899Z,99262.34
2023-01-30T06:27:27.002Z,99263.07
2023-01-30T06:29:56.013Z,99264.96
2023-01-30T06:32:25.339Z,99268.11
2023-01-30T06:34:54.605Z,99273.09
2023-01-30T06:37:23.668Z,99276.84
2023-01-30T06:39:52.702Z,99281.23
2023-01-30T06:42:21.897Z,99285.90
2023-01-30T06:44:50.799Z,99284.45
2023-01-30T06:47:19.764Z,99286.12
2023-01-30T06:49:49.459Z,99289.45
2023-01-30T06:52:18.328Z,99289.64
2023-01-30T06:54:46.831Z,99284.79
2023-01-30T06:57:15.802Z,99286.15
2023-01-30T06:59:44.475Z,99284.78
2023-01-30T07:02:13.854Z,99290.04
2023-01-30T07:04:42.711Z,99290.04
2023-01-30T07:07:11.900Z,99289.90
2023-01-30T07:09:40.682Z,99284.80
2023-01-30T07:12:09.403Z,99287.03
2023-01-30T07:14:38.358Z,99279.20
2023-01-30T07:17:07.921Z,99273.68
2023-01-30T07:19:36.907Z,99270.52
2023-01-30T07:22:05.725Z,99270.73
2023-01-30T07:24:34.651Z,99271.27
2023-01-30T07:27:03.667Z,99268.21
2023-01-30T07:29:32.383Z,99269.21
2023-01-30T07:32:01.275Z,99268.05
2023-01-30T07:34:30.354Z,99263.34
2023-01-30T07:36:59.391Z,99263.23
2023-01-30T07:39:28.334Z,99256.32
2023-01-30T07:41:57.056Z,99253.36
2023-01-30T07:44:26.472Z,99252.38
2023-01-30T07:46:55.756Z,99251.48
2023-01-30T07:49:24.808Z,99253.27
2023-01-30T07:51:54.265Z,99252.90
2023-01-30T07:54:23.645Z,99254.95
2023-01-30T07:56:53.143Z,99261.02
2023-01-30T07:59:21.885Z,99257.67
2023-01-30T08:01:50.917Z,99255.26
2023-01-30T08:04:19.954Z,99253.14
2023-01-30T08:06:49.277Z,99256.64
2023-01-30T08:09:18.616Z,99260.80
2023-01-30T08:11:48.039Z,99261.05
2023-01-30T08:14:17.041Z,99266.66
2023-01-30T08:16:46.546Z,99270.15
2023-01-30T08:19:15.484Z,99267.83
2023-01-30T08:21:44.516Z,99264.54
2023-01-30T08:24:14.043Z,99262.69
2023-01-30T08:26:43.478Z,99262.54
2023-01-30T08:29:12.767Z,99265.31
2023-01-30T08:31:43.102Z,99265.60
2023-01-30T08:34:12.076Z,99267.39
2023-01-30T08:36:40.999Z,99268.73
2023-01-30T08:39:11.785Z,99274.20
2023-01-30T08:41:43.696Z,99275.30
2023-01-30T08:44:13.298Z,99282.73
2023-01-30T08:46:42.657Z,99283.45
2023-01-30T08:49:11.852Z,99282.19
2023-01-30T08:51:41.082Z,99279.38
2023-01-30T08:54:10.516Z,99278.80
2023-01-30T08:56:39.765Z,99271.41
2023-01-30T08:59:10.244Z,99272.60
2023-01-30T09:01:39.376Z,99272.73
2023-01-30T09:04:08.261Z,99269.78
2023-01-30T09:06:37.360Z,99267.61
2023-01-30T09:09:06.550Z,99271.58
2023-01-30T09:11:36.079Z,99270.57
2023-01-30T09:14:05.346Z,99267.81
2023-01-30T09:16:34.538Z,99266.13
2023-01-30T09:19:04.228Z,99266.59
2023-01-30T09:21:33.845Z,99268.67
2023-01-30T09:24:03.564Z,99264.28
2023-01-30T09:26:33.079Z,99255.80
2023-01-30T09:29:02.362Z,99253.14
2023-01-30T09:31:32.175Z,99252.19
2023-01-30T09:34:01.514Z,99244.95
2023-01-30T09:36:30.491Z,99239.79
2023-01-30T09:38:59.684Z,99234.63
2023-01-30T09:41:59.272Z,99230.65
2023-01-30T09:45:05.420Z,99227.73
2023-01-30T09:48:10.620Z,99227.19
2023-01-30T09:50:49.005Z,99218.67
2023-01-30T09:53:37.873Z,99216.27
2023-01-30T09:56:08.021Z,99220.29
2023-01-30T09:59:18.338Z,99223.63
2023-01-30T10:02:00.308Z,99229.83
2023-01-30T10:04:36.178Z,99224.56
2023-01-30T10:07:32.680Z,99219.33
2023-01-30T10:10:21.880Z,99217.55
2023-01-30T10:13:22.849Z,99215.15
2023-01-30T10:16:24.141Z,99215.59
2023-01-30T10:19:50.553Z,99212.81
2023-01-30T10:22:31.767Z,99207.68
2023-01-30T10:25:29.059Z,99200.70
2023-01-30T10:28:03.010Z,99188.69
2023-01-30T10:30:35.639Z,99176.23
2023-01-30T10:33:07.977Z,99173.17
2023-01-30T10:35:43.179Z,99165.30
2023-01-30T10:38:26.864Z,99160.05
2023-01-30T10:41:22.390Z,99153.35
2023-01-30T10:44:14.234Z,99153.33
2023-01-30T10:47:04.807Z,99151.27
2023-01-30T10:49:47.964Z,99146.53
2023-01-30T10:52:42.414Z,99147.69
2023-01-30T10:55:31.497Z,99143.14
2023-01-30T10:58:18.223Z,99139.69
2023-01-30T11:01:21.122Z,99137.73
2023-01-30T11:04:03.929Z,99136.38
2023-01-30T11:06:36.200Z,99134.77
2023-01-30T11:09:05.799Z,99129.45
2023-01-30T11:11:49.504Z,99121.45
2023-01-30T11:14:18.830Z,99125.66
2023-01-30T11:16:52.126Z,99125.78
2023-01-30T11:19:34.413Z,99119.09
2023-01-30T11:22:07.736Z,99113.52
2023-01-30T11:24:43.484Z,99104.09
2023-01-30T11:27:32.266Z,99104.95
2023-01-30T11:30:20.567Z,99103.43
2023-01-30T11:32:51.276Z,99097.23
2023-01-30T11:35:25.642Z,99083.74
2023-01-30T11:37:55.424Z,99074.66
2023-01-30T11:40:28.373Z,99069.52
2023-01-30T11:43:06.373Z,99070.66
2023-01-30T11:45:38.884Z,99064.38
2023-01-30T11:48:33.797Z,99047.25
2023-01-30T11:51:14.963Z,99029.61
2023-01-30T11:53:50.475Z,99025.70
2023-01-30T11:56:33.375Z,99019.27
2023-01-30T11:59:08.518Z,99011.80
2023-01-30T12:01:38.152Z,99003.59
2023-01-30T12:04:12.850Z,99007.21
2023-01-30T12:06:44.377Z,99011.13
2023-01-30T12:09:37.361Z,99002.48
2023-01-30T12:12:32.457Z,99001.70
2023-01-30T12:15:12.461Z,98995.73
2023-01-30T12:18:00.451Z,98999.68
2023-01-30T12:20:49.112Z,99000.15
2023-01-30T12:23:21.801Z,98987.39
2023-01-30T12:26:12.083Z,98985.36
2023-01-30T12:29:00.234Z,98994.61
2023-01-30T12:31:55.976Z,98985.41
2023-01-30T12:34:27.581Z,98978.07
2023-01-30T12:37:24.668Z,98969.51
2023-01-30T12:40:17.055Z,98958.44
2023-01-30T12:43:14.479Z,98941.88
2023-01-30T12:46:07.960Z,98931.86
2023-01-30T12:49:07.702Z,98924.98
2023-01-30T12:52:17.347Z,98924.14
2023-01-30T12:54:55.673Z,98916.98
2023-01-30T12:57:34.767Z,98906.27
2023-01-30T13:00:34.660Z,98895.86
2023-01-30T13:03:26.667Z,98889.16
2023-01-30T13:06:09.792Z,98881.06
2023-01-30T13:08:52.954Z,98885.35
2023-01-30T13:11:45.875Z,98882.67
2023-01-30T13:14:29.270Z,98877.10
2023-01-30T13:17:04.971Z,98883.55
2023-01-30T13:19:46.960Z,98880.29
2023-01-30T13:22:55.958Z,98880.58
2023-01-30T13:25:30.897Z,98889.58
2023-01-30T13:28:04.415Z,98896.76
2023-01-30T13:30:37.361Z,98898.09
2023-01-30T13:33:21.536Z,98893.96
2023-01-30T13:36:16.759Z,98891.52
2023-01-30T13:38:57.941Z,98888.67
2023-01-30T13:41:32.730Z,98883.98
2023-01-30T13:44:08.010Z,98873.63
2023-01-30T13:46:39.945Z,98863.27
2023-01-30T13:49:29.501Z,98845.77
2023-01-30T13:52:10.092Z,98835.88
2023-01-30T13:55:20.723Z,98842.72
2023-01-30T13:58:19.773Z,98847.65
2023-01-30T14:00:57.798Z,98859.73
2023-01-30T14:03:33.174Z,98861.86
2023-01-30T14:06:07.693Z,98863.92
2023-01-30T14:08:46.842Z,98875.77
2023-01-30T14:11:35.931Z,98886.50
2023-01-30T14:14:31.185Z,98884.02
2023-01-30T14:17:17.777Z,98883.36
2023-01-30T14:20:00.159Z,98887.27
2023-01-30T14:22:47.723Z,98897.91
2023-01-30T14:25:26.235Z,98892.48
2023-01-30T14:27:56.588Z,98889.14
2023-01-30T14:30:31.429Z,98894.21
2023-01-30T14:33:02.476Z,98898.85
2023-01-30T14:35:33.603Z,98897.66
2023-01-30T14:38:16.125Z,98887.52
2023-01-30T14:40:50.349Z,98894.81
2023-01-30T14:43:42.709Z,98908.80
2023-01-30T14:46:19.646Z,98901.95
2023-01-30T14:49:01.641Z,98904.28
2023-01-30T14:51:40.156Z,98909.27
2023-01-30T14:54:14.278Z,98915.29
2023-01-30T14:57:03.570Z,98914.33
2023-01-30T14:59:35.927Z,98913.04
2023-01-30T15:02:14.921Z,98908.77
2023-01-30T15:05:06.100Z,98907.90
2023-01-30T15:08:00.452Z,98901.94
2023-01-30T15:10:42.273Z,98880.45
2023-01-30T15:13:16.840Z,98884.61
2023-01-30T15:15:52.405Z,98905.21
2023-01-30T15:18:46.085Z,98909.11
2023-01-30T15:21:32.383Z,98892.92
2023-01-30T15:24:42.329Z,98902.98
2023-01-30T15:27:12.185Z,98906.80
2023-01-30T15:29:56.679Z,98898.38
2023-01-30T15:32:27.928Z,98891.88
2023-01-30T15:35:17.058Z,98893.83
2023-01-30T15:37:46.879Z,98896.77
2023-01-30T15:40:16.656Z,98898.27
2023-01-30T15:42:51.534Z,98898.02
2023-01-30T15:45:52.687Z,98891.22
2023-01-30T15:48:39.966Z,98889.89
2023-01-30T15:51:15.045Z,98880.39
2023-01-30T15:53:47.351Z,98886.73
2023-01-30T15:56:24.561Z,98900.09
2023-01-30T15:58:54.874Z,98907.45
2023-01-30T16:01:24.569Z,98913.67
2023-01-30T16:03:56.504Z,98920.75
2023-01-30T16:06:34.706Z,98925.40
2023-01-30T16:09:04.358Z,98915.42
2023-01-30T16:11:41.983Z,98911.80
2023-01-30T16:14:17.620Z,98907.55
2023-01-30T16:16:53.113Z,98908.48
2023-01-30T16:19:27.103Z,98907.08
2023-01-30T16:22:02.879Z,98904.01
2023-01-30T16:24:34.690Z,98914.49
2023-01-30T16:27:07.980Z,98919.71
2023-01-30T16:29:51.938Z,98923.66
2023-01-30T16:32:33.807Z,98923.33
2023-01-30T16:35:34.484Z,98921.10
2023-01-30T16:38:04.705Z,98925.81
2023-01-30T16:40:46.637Z,98927.90
2023-01-30T16:43:25.658Z,98938.17
2023-01-30T16:45:55.298Z,98930.60
2023-01-30T16:48:34.308Z,98928.83
2023-01-30T16:51:04.002Z,98927.42
2023-01-30T16:53:34.334Z,98925.60
2023-01-30T16:56:04.664Z,98929.92
2023-01-30T16:58:36.405Z,98932.05
2023-01-30T17:01:08.847Z,98931.30
2023-01-30T17:04:01.264Z,98929.27
2023-01-30T17:06:40.315Z,98925.52
2023-01-30T17:09:46.696Z,98922.84
2023-01-30T17:12:28.933Z,98911.67
2023-01-30T17:15:29.059Z,98911.70
2023-01-30T17:17:58.458Z,98902.44
2023-01-30T17:20:41.100Z,98900.44
2023-01-30T17:23:16.029Z,98903.13
2023-01-30T17:25:47.992Z,98901.69
2023-01-30T17:28:21.747Z,98911.16
2023-01-30T17:30:51.435Z,98912.27
2023-01-30T17:33:21.280Z,98912.74
2023-01-30T17:35:50.627Z,98917.92
2023-01-30T17:38:19.972Z,98914.67
2023-01-30T17:40:50.627Z,98916.39
2023-01-30T17:43:20.306Z,98919.50
2023-01-30T17:45:51.197Z,98909.15
2023-01-30T17:48:20.659Z,98902.03
2023-01-30T17:50:49.642Z,98903.34
2023-01-30T17:53:18.780Z,98903.76
2023-01-30T17:55:48.767Z,98900.35
2023-01-30T17:58:18.538Z,98901.30
2023-01-30T18:00:48.111Z,98900.33
2023-01-30T18:03:17.949Z,98900.45
2023-01-30T18:05:47.849Z,98906.91
2023-01-30T18:08:16.871Z,98906.25
2023-01-30T18:10:46.423Z,98905.63
2023-01-30T18:13:15.482Z,98900.23
2023-01-30T18:15:44.641Z,98896.13
2023-01-30T18:18:20.857Z,98902.91
2023-01-30T18:20:49.766Z,98906.44
2023-01-30T18:23:20.445Z,98904.11
2023-01-30T18:25:50.920Z,98905.02
2023-01-30T18:28:21.024Z,98906.45
2023-01-30T18:30:50.711Z,98907.38
2023-01-30T18:33:20.208Z,98910.66
2023-01-30T18:35:49.819Z,98901.95
2023-01-30T18:38:19.783Z,98902.20
2023-01-30T18:40:50.038Z,98905.78
2023-01-30T18:43:18.880Z,98905.91
2023-01-30T18:45:48.791Z,98903.35
2023-01-30T18:48:18.011Z,98909.36
2023-01-30T18:50:47.350Z,98913.13
2023-01-30T18:53:17.499Z,98911.82
2023-01-30T18:55:51.181Z,98915.27
2023-01-30T18:58:20.429Z,98912.77
2023-01-30T19:00:49.871Z,98903.35
2023-01-30T19:03:18.968Z,98904.50
2023-01-30T19:05:47.886Z,98906.70
2023-01-30T19:08:17.292Z,98915.51
2023-01-30T19:10:46.117Z,98915.11
2023-01-30T19:13:33.896Z,98914.82
2023-01-30T19:16:04.636Z,98915.39
2023-01-30T19:18:33.590Z,98918.36
2023-01-30T19:21:03.951Z,98919.32
2023-01-30T19:23:34.432Z,98923.73
2023-01-30T19:26:04.144Z,98931.48
2023-01-30T19:28:33.579Z,98938.79
2023-01-30T19:31:07.988Z,98949.83
2023-01-30T19:33:37.597Z,98945.11
2023-01-30T19:36:20.318Z,98937.58
2023-01-30T19:38:50.928Z,98934.55
2023-01-30T19:41:31.672Z,98934.83
2023-01-30T19:44:03.604Z,98935.64
2023-01-30T19:46:34.241Z,98931.63
2023-01-30T19:49:05.989Z,98922.44
2023-01-30T19:51:36.070Z,98926.73
2023-01-30T19:54:08.947Z,98929.80
2023-01-30T19:56:40.501Z,98937.55
2023-01-30T19:59:12.114Z,98946.64
2023-01-30T20:01:41.412Z,98932.84
2023-01-30T20:04:10.226Z,98925.60
2023-01-30T20:06:45.065Z,98934.23
2023-01-30T20:09:16.866Z,98946.27
2023-01-30T20:11:46.186Z,98943.79
2023-01-30T20:14:15.441Z,98931.13
2023-01-30T20:16:45.726Z,98932.95
2023-01-30T20:19:17.212Z,98930.98
2023-01-30T20:21:46.757Z,98940.02
2023-01-30T20:24:17.140Z,98941.45
2023-01-30T20:26:48.556Z,98942.35
2023-01-30T20:29:18.925Z,98936.71
2023-01-30T20:31:48.734Z,98937.54
2023-01-30T20:34:19.208Z,98935.61
2023-01-30T20:36:48.898Z,98928.44
2023-01-30T20:39:21.039Z,98933.70
2023-01-30T20:41:50.721Z,98939.08
2023-01-30T20:44:21.711Z,98936.77
2023-01-30T20:46:51.516Z,98929.88
2023-01-30T20:49:22.127Z,98930.16
2023-01-30T20:51:53.603Z,98930.96
2023-01-30T20:54:24.162Z,98938.41
2023-01-30T20:56:54.798Z,98943.29
2023-01-30T20:59:25.225Z,98938.66
2023-01-30T21:01:56.024Z,98934.50
2023-01-30T21:04:26.085Z,98935.94
2023-01-30T21:06:55.263Z,98933.52
2023-01-30T21:09:25.676Z,98927.58
2023-01-30T21:11:56.108Z,98931.30
2023-01-30T21:14:26.700Z,98929.89
2023-01-30T21:16:56.548Z,98932.73
2023-01-30T21:19:25.558Z,98929.00
2023-01-30T21:21:56.648Z,98926.34
2023-01-30T21:24:30.127Z,98928.14
2023-01-30T21:27:00.454Z,98932.95
2023-01-30T21:29:30.249Z,98935.66
2023-01-30T21:32:00.120Z,98932.48
2023-01-30T21:34:29.596Z,98927.73
2023-01-30T21:37:17.980Z,98926.61
2023-01-30T21:40:06.069Z,98928.80
2023-01-30T21:42:53.998Z,98935.84
2023-01-30T21:45:23.341Z,98940.30
2023-01-30T21:47:54.774Z,98938.17
2023-01-30T21:50:24.289Z,98937.30
2023-01-30T21:52:53.464Z,98940.68
2023-01-30T21:55:22.288Z,98940.50
2023-01-30T21:57:53.036Z,98941.23
2023-01-30T22:00:22.776Z,98948.12
2023-01-30T22:02:52.094Z,98952.16
2023-01-30T22:05:21.199Z,98946.84
2023-01-30T22:07:50.231Z,98947.19
2023-01-30T22:10:19.423Z,98947.55
2023-01-30T22:12:48.581Z,98951.69
2023-01-30T22:15:18.097Z,98943.73
2023-01-30T22:17:48.367Z,98938.77
2023-01-30T22:20:18.090Z,98936.11
2023-01-30T22:22:48.022Z,98946.42
2023-01-30T22:25:16.906Z,98950.06
2023-01-30T22:27:46.051Z,98946.21
2023-01-30T22:30:15.327Z,98943.89
2023-01-30T22:32:45.354Z,98949.61
2023-01-30T22:35:14.683Z,98954.73
2023-01-30T22:37:44.374Z,98950.03
2023-01-30T22:40:14.046Z,98946.75
2023-01-30T22:42:48.050Z,98953.45
2023-01-30T22:45:17.232Z,98957.56
2023-01-30T22:47:46.278Z,98957.14
2023-01-30T22:50:15.256Z,98955.00
2023-01-30T22:52:44.334Z,98948.00
2023-01-30T22:55:13.505Z,98943.09
2023-01-30T22:57:42.616Z,98945.32
2023-01-30T23:00:12.020Z,98945.43
2023-01-30T23:02:41.117Z,98947.63
2023-01-30T23:05:10.314Z,98953.00
2023-01-30T23:07:39.262Z,98960.27
2023-01-30T23:10:08.714Z,98959.96
2023-01-30T23:12:56.240Z,98964.95
2023-01-30T23:15:24.999Z,98968.80
2023-01-30T23:18:12.424Z,98975.79
2023-01-30T23:20:41.168Z,98979.17
2023-01-30T23:23:09.826Z,98983.02
2023-01-30T23:25:42.889Z,98988.91
2023-01-30T23:28:11.611Z,98983.55
2023-01-30T23:30:40.622Z,98975.77
2023-01-30T23:33:09.607Z,98978.93
2023-01-30T23:35:38.936Z,98982.65
2023-01-30T23:38:19.660Z,98991.06
2023-01-30T23:40:49.909Z,98982.98
2023-01-30T23:43:20.197Z,98971.59
2023-01-30T23:45:49.307Z,98963.55
2023-01-30T23:48:20.179Z,98959.55
2023-01-30T23:50:50.083Z,98961.64
2023-01-30T23:53:19.426Z,98954.03
2023-01-30T23:55:52.679Z,98955.73
2023-01-30T23:58:22.346Z,98961.11
